createdAt,value
2023-04-20T00:01:56.927Z,5.65
2023-04-20T00:06:54.075Z,7.03
2023-04-20T00:11:50.694Z,6.85
2023-04-20T00:16:48.795Z,8.27
2023-04-20T00:21:48.852Z,6.80
2023-04-20T00:26:45.283Z,4.55
2023-04-20T00:31:42.275Z,6.10
2023-04-20T00:36:38.705Z,4.93
2023-04-20T00:41:35.372Z,5.20
2023-04-20T00:46:32.012Z,5.32
2023-04-20T00:51:29.348Z,7.05
2023-04-20T00:56:25.766Z,7.10
2023-04-20T01:01:22.228Z,7.30
2023-04-20T01:06:18.721Z,6.38
2023-04-20T01:11:15.531Z,7.90
2023-04-20T01:16:12.612Z,7.47
2023-04-20T01:21:09.099Z,6.82
2023-04-20T01:26:10.333Z,6.75
2023-04-20T01:31:08.039Z,4.65
2023-04-20T01:36:06.241Z,9.75
2023-04-20T01:41:05.701Z,6.75
2023-04-20T01:46:02.269Z,7.53
2023-04-20T01:50:58.839Z,7.78
2023-04-20T01:55:55.454Z,6.65
2023-04-20T02:00:51.935Z,7.35
2023-04-20T02:05:48.384Z,7.90
2023-04-20T02:10:44.832Z,6.00
2023-04-20T02:15:41.470Z,6.25
2023-04-20T02:20:37.929Z,7.65
2023-04-20T02:25:34.361Z,8.15
2023-04-20T02:30:31.385Z,6.88
2023-04-20T02:35:27.847Z,7.63
2023-04-20T02:40:24.341Z,17.48
2023-04-20T02:45:20.750Z,8.68
2023-04-20T02:50:17.186Z,10.15
2023-04-20T02:55:13.675Z,8.50
2023-04-20T03:00:13.757Z,8.98
2023-04-20T03:05:10.255Z,10.85
2023-04-20T03:10:07.556Z,9.77
2023-04-20T03:15:07.889Z,8.32
2023-04-20T03:20:04.969Z,11.35
2023-04-20T03:25:01.533Z,7.90
2023-04-20T03:29:58.054Z,9.98
2023-04-20T03:34:54.481Z,10.30
2023-04-20T03:39:50.878Z,8.30
2023-04-20T03:44:47.295Z,10.57
2023-04-20T03:49:43.709Z,10.05
2023-04-20T03:54:40.520Z,10.30
2023-04-20T03:59:36.947Z,12.73
2023-04-20T04:04:33.482Z,11.77
2023-04-20T04:09:30.254Z,16.17
2023-04-20T04:14:26.695Z,11.52
2023-04-20T04:19:23.123Z,11.98
2023-04-20T04:24:19.635Z,11.10
2023-04-20T04:29:16.210Z,11.10
2023-04-20T04:34:13.775Z,13.13
2023-04-20T04:39:10.231Z,12.82
2023-04-20T04:44:11.107Z,14.73
2023-04-20T04:49:08.023Z,14.27
2023-04-20T04:54:04.759Z,14.95
2023-04-20T04:59:01.149Z,11.02
2023-04-20T05:03:57.717Z,19.70
2023-04-20T05:08:54.532Z,17.55
2023-04-20T05:13:51.137Z,16.88
2023-04-20T05:18:47.571Z,14.75
2023-04-20T05:23:44.108Z,11.38
2023-04-20T05:28:40.607Z,12.82
2023-04-20T05:33:37.106Z,16.17
2023-04-20T05:38:33.494Z,16.25
2023-04-20T05:43:29.938Z,20.20
2023-04-20T05:48:29.841Z,14.43
2023-04-20T05:53:26.790Z,16.60
2023-04-20T05:58:23.449Z,15.77
2023-04-20T06:03:20.570Z,15.60
2023-04-20T06:08:18.948Z,16.73
2023-04-20T06:13:15.423Z,16.98
2023-04-20T06:18:11.896Z,17.27
2023-04-20T06:23:08.381Z,15.45
2023-04-20T06:28:06.199Z,21.00
2023-04-20T06:33:03.144Z,16.55
2023-04-20T06:38:02.318Z,13.30
2023-04-20T06:42:58.768Z,16.33
2023-04-20T06:47:55.228Z,17.38
2023-04-20T06:52:51.674Z,16.48
2023-04-20T06:57:48.200Z,13.02
2023-04-20T07:02:46.432Z,10.82
2023-04-20T07:07:44.335Z,13.15
2023-04-20T07:12:43.280Z,12.75
2023-04-20T07:17:40.316Z,15.30
2023-04-20T07:22:37.951Z,17.15
2023-04-20T07:27:38.876Z,13.02
2023-04-20T07:32:36.314Z,21.25
2023-04-20T07:37:33.555Z,15.23
2023-04-20T07:42:29.987Z,19.75
2023-04-20T07:47:26.456Z,20.10
2023-04-20T07:52:24.099Z,17.50
2023-04-20T07:57:21.012Z,13.25
2023-04-20T08:02:17.694Z,23.02
2023-04-20T08:07:14.271Z,13.35
2023-04-20T08:12:10.790Z,16.35
2023-04-20T08:17:07.732Z,13.88
2023-04-20T08:22:05.721Z,17.92
2023-04-20T08:27:02.397Z,15.15
2023-04-20T08:31:58.893Z,16.75
2023-04-20T08:36:55.525Z,21.38
2023-04-20T08:41:55.678Z,16.20
2023-04-20T08:46:52.235Z,14.43
2023-04-20T08:51:49.126Z,13.00
2023-04-20T08:56:47.162Z,16.08
2023-04-20T09:01:44.655Z,12.32
2023-04-20T09:06:44.018Z,12.25
2023-04-20T09:11:40.537Z,15.52
2023-04-20T09:16:39.275Z,15.25
2023-04-20T09:21:35.810Z,15.20
2023-04-20T09:26:36.331Z,15.02
2023-04-20T09:31:36.615Z,14.25
2023-04-20T09:36:36.940Z,14.40
2023-04-20T09:41:35.351Z,12.15
2023-04-20T09:46:33.717Z,13.55
2023-04-20T09:51:35.997Z,19.00
2023-04-20T09:56:35.807Z,13.60
2023-04-20T10:01:34.679Z,17.38
2023-04-20T10:06:33.453Z,24.85
2023-04-20T10:11:51.708Z,17.70
2023-04-20T10:17:00.845Z,17.33
2023-04-20T10:21:57.524Z,11.07
2023-04-20T10:26:54.025Z,18.15
2023-04-20T10:31:50.931Z,13.32
2023-04-20T10:36:47.583Z,15.38
2023-04-20T10:41:55.349Z,20.25
2023-04-20T10:46:52.075Z,18.30
2023-04-20T10:51:55.690Z,14.75
2023-04-20T10:56:53.422Z,14.95
2023-04-20T11:01:51.602Z,13.23
2023-04-20T11:06:48.704Z,13.18
2023-04-20T11:11:45.175Z,11.65
2023-04-20T11:16:52.348Z,14.73
2023-04-20T11:21:48.870Z,17.02
2023-04-20T11:26:46.114Z,13.77
2023-04-20T11:31:42.677Z,15.23
2023-04-20T11:36:39.275Z,16.00
2023-04-20T11:41:38.932Z,14.18
2023-04-20T11:46:37.531Z,16.00
2023-04-20T11:51:34.097Z,15.85
2023-04-20T11:56:30.587Z,13.60
2023-04-20T12:01:27.033Z,12.88
2023-04-20T12:06:23.513Z,11.82
2023-04-20T12:11:20.413Z,17.60
2023-04-20T12:16:17.054Z,17.13
2023-04-20T12:21:13.530Z,17.00
2023-04-20T12:26:10.099Z,15.73
2023-04-20T12:31:07.694Z,17.38
2023-04-20T12:36:04.295Z,16.13
2023-04-20T12:41:00.814Z,16.75
2023-04-20T12:45:57.252Z,20.17
2023-04-20T12:50:53.944Z,16.98
2023-04-20T12:55:57.570Z,20.42
2023-04-20T13:00:57.895Z,18.48
2023-04-20T13:05:54.282Z,17.02
2023-04-20T13:10:50.786Z,17.15
2023-04-20T13:15:47.341Z,16.35
2023-04-20T13:20:43.898Z,19.85
2023-04-20T13:25:40.715Z,17.75
2023-04-20T13:30:37.952Z,14.10
2023-04-20T13:35:34.510Z,21.48
2023-04-20T13:40:30.952Z,17.13
2023-04-20T13:45:28.299Z,17.00
2023-04-20T13:50:24.784Z,18.52
2023-04-20T13:55:21.343Z,15.68
2023-04-20T14:00:18.116Z,18.77
2023-04-20T14:05:14.593Z,22.75
2023-04-20T14:10:11.080Z,18.50
2023-04-20T14:15:07.970Z,20.98
2023-04-20T14:20:05.568Z,16.33
2023-04-20T14:25:06.140Z,19.13
2023-04-20T14:30:02.811Z,19.13
2023-04-20T14:34:59.239Z,21.65
2023-04-20T14:39:55.855Z,21.05
2023-04-20T14:44:52.510Z,20.90
2023-04-20T14:49:48.934Z,22.30
2023-04-20T14:54:45.468Z,25.05
2023-04-20T14:59:42.037Z,22.55
2023-04-20T15:04:38.609Z,19.73
2023-04-20T15:09:35.372Z,22.45
2023-04-20T15:14:31.835Z,23.13
2023-04-20T15:19:28.224Z,20.02
2023-04-20T15:24:27.603Z,24.02
2023-04-20T15:29:24.057Z,19.27
2023-04-20T15:34:20.811Z,21.70
2023-04-20T15:39:17.782Z,19.52
2023-04-20T15:44:14.267Z,20.40
2023-04-20T15:49:10.800Z,16.55
2023-04-20T15:54:07.277Z,18.58
2023-04-20T15:59:04.394Z,15.10
2023-04-20T16:04:01.442Z,14.15
2023-04-20T16:08:58.021Z,16.02
2023-04-20T16:13:56.130Z,16.83
2023-04-20T16:18:52.659Z,12.25
2023-04-20T16:23:53.434Z,13.50
2023-04-20T16:28:49.866Z,16.33
2023-04-20T16:33:46.251Z,15.00
2023-04-20T16:38:43.257Z,20.48
2023-04-20T16:43:40.756Z,17.30
2023-04-20T16:48:37.198Z,21.88
2023-04-20T16:53:33.803Z,16.67
2023-04-20T16:58:30.313Z,18.98
2023-04-20T17:03:27.054Z,17.67
2023-04-20T17:08:26.562Z,19.38
2023-04-20T17:13:23.385Z,22.38
2023-04-20T17:18:19.794Z,12.85
2023-04-20T17:23:17.735Z,22.33
2023-04-20T17:28:14.278Z,26.55
2023-04-20T17:33:12.252Z,15.85
2023-04-20T17:38:08.836Z,12.63
2023-04-20T17:43:05.335Z,17.42
2023-04-20T17:48:04.066Z,18.55
2023-04-20T17:53:06.703Z,17.70
2023-04-20T17:58:03.549Z,17.15
2023-04-20T18:03:04.993Z,20.45
2023-04-20T18:08:02.061Z,15.53
2023-04-20T18:12:58.713Z,16.50
2023-04-20T18:17:55.634Z,17.95
2023-04-20T18:22:52.439Z,17.75
2023-04-20T18:27:49.555Z,18.15
2023-04-20T18:32:46.343Z,17.77
2023-04-20T18:37:43.119Z,16.27
2023-04-20T18:42:39.566Z,16.90
2023-04-20T18:47:36.017Z,19.85
2023-04-20T18:52:33.370Z,22.48
2023-04-20T18:57:30.892Z,19.95
2023-04-20T19:02:27.501Z,17.60
2023-04-20T19:07:24.137Z,19.67
2023-04-20T19:12:21.394Z,19.30
2023-04-20T19:17:17.915Z,15.15
2023-04-20T19:22:14.307Z,24.80
2023-04-20T19:27:10.931Z,13.93
2023-04-20T19:32:07.812Z,16.27
2023-04-20T19:37:04.412Z,23.08
2023-04-20T19:42:06.677Z,21.00
2023-04-20T19:47:03.468Z,20.02
2023-04-20T19:51:59.910Z,21.42
2023-04-20T19:56:57.592Z,17.85
2023-04-20T20:01:54.291Z,17.50
2023-04-20T20:06:51.276Z,17.70
2023-04-20T20:11:50.032Z,16.92
2023-04-20T20:16:46.451Z,15.88
2023-04-20T20:21:43.018Z,22.00
2023-04-20T20:26:39.403Z,20.85
2023-04-20T20:31:36.106Z,20.88
2023-04-20T20:36:33.328Z,22.70
2023-04-20T20:41:30.371Z,17.50
2023-04-20T20:46:27.035Z,22.48
2023-04-20T20:51:23.542Z,20.63
2023-04-20T20:56:20.016Z,22.33
2023-04-20T21:01:17.933Z,16.70
2023-04-20T21:06:14.467Z,13.27
2023-04-20T21:11:10.954Z,16.40
2023-04-20T21:16:07.401Z,23.83
2023-04-20T21:21:03.979Z,18.63
2023-04-20T21:26:00.482Z,20.25
2023-04-20T21:30:56.910Z,18.42
2023-04-20T21:35:53.342Z,16.88
2023-04-20T21:40:50.492Z,18.15
2023-04-20T21:45:46.958Z,20.77
2023-04-20T21:50:43.434Z,21.67
2023-04-20T21:55:39.911Z,20.90
2023-04-20T22:00:36.419Z,17.52
2023-04-20T22:05:32.831Z,20.35
2023-04-20T22:10:29.269Z,23.75
2023-04-20T22:15:26.077Z,19.52
2023-04-20T22:20:22.498Z,19.13
2023-04-20T22:25:18.898Z,19.08
2023-04-20T22:30:15.347Z,22.02
2023-04-20T22:35:11.915Z,16.58
2023-04-20T22:40:12.290Z,25.08
2023-04-20T22:45:10.791Z,21.63
2023-04-20T22:50:09.457Z,18.30
2023-04-20T22:55:07.103Z,23.42
2023-04-20T23:00:07.728Z,20.08
2023-04-20T23:05:05.561Z,17.98
2023-04-20T23:10:02.687Z,19.90
2023-04-20T23:15:02.055Z,22.63
2023-04-20T23:19:58.502Z,20.60
2023-04-20T23:24:57.237Z,21.30
2023-04-20T23:29:53.637Z,19.90
2023-04-20T23:34:50.031Z,23.48
2023-04-20T23:39:46.447Z,19.42
2023-04-20T23:44:42.937Z,21.40
2023-04-20T23:49:39.315Z,16.08
2023-04-20T23:54:35.789Z,15.43
2023-04-20T23:59:33.883Z,18.70
